sensor_id;sensor_type;location;lat;lon;timestamp;P1;durP1;ratioP1;P2;durP2;ratioP2
62796;SDS011;48839;48.546;-4.178;2023-12-29T00:01:44;19.05;;;3.42;;
62796;SDS011;48839;48.546;-4.178;2023-12-29T00:04:10;15.95;;;3.78;;
62796;SDS011;48839;48.546;-4.178;2023-12-29T00:06:40;14.32;;;4.20;;
62796;SDS011;48839;48.546;-4.178;2023-12-29T00:09:06;17.88;;;4.43;;
62796;SDS011;48839;48.546;-4.178;2023-12-29T00:11:32;13.50;;;2.58;;
62796;SDS011;48839;48.546;-4.178;2023-12-29T00:13:59;16.75;;;3.20;;
62796;SDS011;48839;48.546;-4.178;2023-12-29T00:16:26;15.23;;;3.10;;
62796;SDS011;48839;48.546;-4.178;2023-12-29T00:18:53;9.88;;;2.33;;
62796;SDS011;48839;48.546;-4.178;2023-12-29T00:21:19;18.45;;;2.65;;
62796;SDS011;48839;48.546;-4.178;2023-12-29T00:23:45;19.58;;;3.20;;
62796;SDS011;48839;48.546;-4.178;2023-12-29T00:26:11;15.80;;;3.28;;
62796;SDS011;48839;48.546;-4.178;2023-12-29T00:28:37;8.68;;;2.85;;
62796;SDS011;48839;48.546;-4.178;2023-12-29T00:31:06;16.42;;;3.67;;
62796;SDS011;48839;48.546;-4.178;2023-12-29T00:33:32;19.42;;;3.95;;
62796;SDS011;48839;48.546;-4.178;2023-12-29T00:35:58;12.32;;;3.00;;
62796;SDS011;48839;48.546;-4.178;2023-12-29T00:38:27;13.18;;;2.67;;
62796;SDS011;48839;48.546;-4.178;2023-12-29T00:40:53;18.77;;;4.75;;
62796;SDS011;48839;48.546;-4.178;2023-12-29T00:43:19;26.50;;;6.40;;
62796;SDS011;48839;48.546;-4.178;2023-12-29T00:45:46;17.40;;;3.20;;
62796;SDS011;48839;48.546;-4.178;2023-12-29T00:48:12;16.17;;;3.65;;
62796;SDS011;48839;48.546;-4.178;2023-12-29T00:50:38;14.77;;;2.88;;
62796;SDS011;48839;48.546;-4.178;2023-12-29T00:53:04;20.38;;;5.13;;
62796;SDS011;48839;48.546;-4.178;2023-12-29T00:55:30;22.05;;;4.03;;
62796;SDS011;48839;48.546;-4.178;2023-12-29T00:57:56;15.13;;;4.55;;
62796;SDS011;48839;48.546;-4.178;2023-12-29T01:00:22;28.85;;;5.50;;
62796;SDS011;48839;48.546;-4.178;2023-12-29T01:02:48;29.75;;;6.60;;
62796;SDS011;48839;48.546;-4.178;2023-12-29T01:05:17;19.42;;;4.63;;
62796;SDS011;48839;48.546;-4.178;2023-12-29T01:07:43;26.27;;;9.05;;
62796;SDS011;48839;48.546;-4.178;2023-12-29T01:10:09;29.33;;;6.85;;
62796;SDS011;48839;48.546;-4.178;2023-12-29T01:12:35;28.05;;;7.35;;
62796;SDS011;48839;48.546;-4.178;2023-12-29T01:15:01;22.20;;;7.55;;
62796;SDS011;48839;48.546;-4.178;2023-12-29T01:17:27;26.35;;;9.02;;
62796;SDS011;48839;48.546;-4.178;2023-12-29T01:19:53;31.20;;;9.07;;
62796;SDS011;48839;48.546;-4.178;2023-12-29T01:22:20;27.73;;;10.90;;
62796;SDS011;48839;48.546;-4.178;2023-12-29T01:24:46;32.67;;;8.82;;
62796;SDS011;48839;48.546;-4.178;2023-12-29T01:27:12;21.75;;;5.80;;
62796;SDS011;48839;48.546;-4.178;2023-12-29T01:29:38;21.08;;;4.82;;
62796;SDS011;48839;48.546;-4.178;2023-12-29T01:32:04;22.15;;;6.47;;
62796;SDS011;48839;48.546;-4.178;2023-12-29T01:34:32;22.90;;;6.13;;
62796;SDS011;48839;48.546;-4.178;2023-12-29T01:37:05;16.27;;;5.80;;
62796;SDS011;48839;48.546;-4.178;2023-12-29T01:39:30;22.77;;;4.82;;
62796;SDS011;48839;48.546;-4.178;2023-12-29T01:41:56;21.67;;;4.82;;
62796;SDS011;48839;48.546;-4.178;2023-12-29T01:44:23;19.63;;;5.13;;
62796;SDS011;48839;48.546;-4.178;2023-12-29T01:46:50;13.13;;;2.90;;
62796;SDS011;48839;48.546;-4.178;2023-12-29T01:49:17;11.65;;;3.75;;
62796;SDS011;48839;48.546;-4.178;2023-12-29T01:51:43;17.88;;;4.90;;
62796;SDS011;48839;48.546;-4.178;2023-12-29T01:54:10;27.88;;;5.50;;
62796;SDS011;48839;48.546;-4.178;2023-12-29T01:56:37;17.33;;;4.35;;
62796;SDS011;48839;48.546;-4.178;2023-12-29T01:59:03;20.92;;;5.47;;
62796;SDS011;48839;48.546;-4.178;2023-12-29T02:01:29;14.68;;;3.45;;
62796;SDS011;48839;48.546;-4.178;2023-12-29T02:03:56;10.77;;;3.65;;
62796;SDS011;48839;48.546;-4.178;2023-12-29T02:06:22;33.20;;;5.50;;
62796;SDS011;48839;48.546;-4.178;2023-12-29T02:08:49;21.70;;;7.97;;
62796;SDS011;48839;48.546;-4.178;2023-12-29T02:11:17;13.35;;;5.03;;
62796;SDS011;48839;48.546;-4.178;2023-12-29T02:13:43;24.30;;;4.57;;
62796;SDS011;48839;48.546;-4.178;2023-12-29T02:16:14;13.57;;;3.95;;
62796;SDS011;48839;48.546;-4.178;2023-12-29T02:18:43;19.83;;;4.93;;
62796;SDS011;48839;48.546;-4.178;2023-12-29T02:21:11;15.23;;;2.72;;
62796;SDS011;48839;48.546;-4.178;2023-12-29T02:23:37;19.80;;;4.28;;
62796;SDS011;48839;48.546;-4.178;2023-12-29T02:26:06;17.40;;;4.38;;
62796;SDS011;48839;48.546;-4.178;2023-12-29T02:28:33;19.48;;;4.50;;
62796;SDS011;48839;48.546;-4.178;2023-12-29T02:31:06;10.60;;;3.20;;
62796;SDS011;48839;48.546;-4.178;2023-12-29T02:33:35;16.70;;;3.78;;
62796;SDS011;48839;48.546;-4.178;2023-12-29T02:36:03;9.27;;;2.78;;
62796;SDS011;48839;48.546;-4.178;2023-12-29T02:38:29;15.82;;;4.15;;
62796;SDS011;48839;48.546;-4.178;2023-12-29T02:40:56;15.80;;;2.80;;
62796;SDS011;48839;48.546;-4.178;2023-12-29T02:43:22;15.85;;;3.22;;
62796;SDS011;48839;48.546;-4.178;2023-12-29T02:45:48;17.75;;;3.90;;
62796;SDS011;48839;48.546;-4.178;2023-12-29T02:48:14;21.00;;;5.03;;
62796;SDS011;48839;48.546;-4.178;2023-12-29T02:50:40;22.63;;;3.75;;
62796;SDS011;48839;48.546;-4.178;2023-12-29T02:53:07;14.40;;;4.10;;
62796;SDS011;48839;48.546;-4.178;2023-12-29T02:55:33;25.08;;;5.63;;
62796;SDS011;48839;48.546;-4.178;2023-12-29T02:57:59;16.50;;;5.53;;
62796;SDS011;48839;48.546;-4.178;2023-12-29T03:00:25;16.17;;;3.78;;
62796;SDS011;48839;48.546;-4.178;2023-12-29T03:02:51;18.08;;;3.80;;
62796;SDS011;48839;48.546;-4.178;2023-12-29T03:05:17;16.13;;;4.00;;
62796;SDS011;48839;48.546;-4.178;2023-12-29T03:07:43;18.10;;;3.13;;
62796;SDS011;48839;48.546;-4.178;2023-12-29T03:10:09;21.67;;;5.25;;
62796;SDS011;48839;48.546;-4.178;2023-12-29T03:12:35;22.90;;;4.47;;
62796;SDS011;48839;48.546;-4.178;2023-12-29T03:15:02;15.45;;;3.65;;
62796;SDS011;48839;48.546;-4.178;2023-12-29T03:17:28;22.35;;;4.63;;
62796;SDS011;48839;48.546;-4.178;2023-12-29T03:19:54;12.90;;;2.30;;
62796;SDS011;48839;48.546;-4.178;2023-12-29T03:22:20;23.17;;;5.07;;
62796;SDS011;48839;48.546;-4.178;2023-12-29T03:24:46;15.05;;;3.63;;
62796;SDS011;48839;48.546;-4.178;2023-12-29T03:27:12;15.20;;;3.67;;
62796;SDS011;48839;48.546;-4.178;2023-12-29T03:29:38;9.88;;;2.53;;
62796;SDS011;48839;48.546;-4.178;2023-12-29T03:32:04;17.85;;;4.50;;
62796;SDS011;48839;48.546;-4.178;2023-12-29T03:34:32;18.98;;;4.80;;
62796;SDS011;48839;48.546;-4.178;2023-12-29T03:36:58;13.93;;;3.38;;
62796;SDS011;48839;48.546;-4.178;2023-12-29T03:39:24;19.20;;;3.60;;
62796;SDS011;48839;48.546;-4.178;2023-12-29T03:41:50;17.27;;;3.40;;
62796;SDS011;48839;48.546;-4.178;2023-12-29T03:44:16;21.90;;;2.58;;
62796;SDS011;48839;48.546;-4.178;2023-12-29T03:46:43;10.35;;;2.17;;
62796;SDS011;48839;48.546;-4.178;2023-12-29T03:49:09;16.48;;;3.15;;
62796;SDS011;48839;48.546;-4.178;2023-12-29T03:51:35;19.38;;;3.95;;
62796;SDS011;48839;48.546;-4.178;2023-12-29T03:54:01;11.10;;;2.92;;
62796;SDS011;48839;48.546;-4.178;2023-12-29T03:56:28;16.95;;;3.50;;
62796;SDS011;48839;48.546;-4.178;2023-12-29T03:58:54;14.68;;;3.80;;
62796;SDS011;48839;48.546;-4.178;2023-12-29T04:01:20;14.35;;;4.05;;
62796;SDS011;48839;48.546;-4.178;2023-12-29T04:03:46;13.88;;;2.95;;
62796;SDS011;48839;48.546;-4.178;2023-12-29T04:06:13;15.20;;;6.00;;
62796;SDS011;48839;48.546;-4.178;2023-12-29T04:08:39;20.50;;;6.72;;
62796;SDS011;48839;48.546;-4.178;2023-12-29T04:11:05;22.27;;;6.90;;
62796;SDS011;48839;48.546;-4.178;2023-12-29T04:13:31;21.15;;;6.78;;
62796;SDS011;48839;48.546;-4.178;2023-12-29T04:15:57;23.38;;;5.82;;
62796;SDS011;48839;48.546;-4.178;2023-12-29T04:18:24;25.08;;;7.72;;
62796;SDS011;48839;48.546;-4.178;2023-12-29T04:20:50;30.90;;;12.98;;
62796;SDS011;48839;48.546;-4.178;2023-12-29T04:23:16;59.65;;;25.17;;
62796;SDS011;48839;48.546;-4.178;2023-12-29T04:25:43;30.15;;;12.75;;
62796;SDS011;48839;48.546;-4.178;2023-12-29T04:28:09;40.67;;;16.27;;
62796;SDS011;48839;48.546;-4.178;2023-12-29T04:30:35;42.10;;;15.48;;
62796;SDS011;48839;48.546;-4.178;2023-12-29T04:33:01;26.35;;;10.93;;
62796;SDS011;48839;48.546;-4.178;2023-12-29T04:35:28;35.33;;;13.70;;
62796;SDS011;48839;48.546;-4.178;2023-12-29T04:37:54;69.10;;;25.40;;
62796;SDS011;48839;48.546;-4.178;2023-12-29T04:40:20;39.95;;;15.38;;
62796;SDS011;48839;48.546;-4.178;2023-12-29T04:42:46;64.18;;;26.75;;
62796;SDS011;48839;48.546;-4.178;2023-12-29T04:45:12;36.60;;;12.40;;
62796;SDS011;48839;48.546;-4.178;2023-12-29T04:47:38;29.65;;;11.50;;
62796;SDS011;48839;48.546;-4.178;2023-12-29T04:50:04;36.13;;;11.07;;
62796;SDS011;48839;48.546;-4.178;2023-12-29T04:52:31;25.80;;;10.25;;
62796;SDS011;48839;48.546;-4.178;2023-12-29T04:54:57;23.25;;;9.95;;
62796;SDS011;48839;48.546;-4.178;2023-12-29T04:57:23;38.53;;;14.13;;
62796;SDS011;48839;48.546;-4.178;2023-12-29T04:59:49;26.50;;;9.10;;
62796;SDS011;48839;48.546;-4.178;2023-12-29T05:02:15;24.02;;;10.73;;
62796;SDS011;48839;48.546;-4.178;2023-12-29T05:04:41;17.80;;;7.68;;
62796;SDS011;48839;48.546;-4.178;2023-12-29T05:07:08;22.40;;;9.73;;
62796;SDS011;48839;48.546;-4.178;2023-12-29T05:09:34;22.02;;;5.22;;
62796;SDS011;48839;48.546;-4.178;2023-12-29T05:12:00;18.48;;;5.57;;
62796;SDS011;48839;48.546;-4.178;2023-12-29T05:14:26;13.07;;;4.75;;
62796;SDS011;48839;48.546;-4.178;2023-12-29T05:16:52;18.42;;;3.65;;
62796;SDS011;48839;48.546;-4.178;2023-12-29T05:19:18;11.23;;;3.85;;
62796;SDS011;48839;48.546;-4.178;2023-12-29T05:21:44;13.43;;;2.90;;
62796;SDS011;48839;48.546;-4.178;2023-12-29T05:24:11;22.60;;;4.32;;
62796;SDS011;48839;48.546;-4.178;2023-12-29T05:26:37;18.13;;;3.22;;
62796;SDS011;48839;48.546;-4.178;2023-12-29T05:29:03;25.77;;;4.20;;
62796;SDS011;48839;48.546;-4.178;2023-12-29T05:31:29;12.93;;;2.97;;
62796;SDS011;48839;48.546;-4.178;2023-12-29T05:33:55;15.95;;;2.53;;
62796;SDS011;48839;48.546;-4.178;2023-12-29T05:36:21;14.05;;;2.63;;
62796;SDS011;48839;48.546;-4.178;2023-12-29T05:38:47;12.32;;;2.60;;
62796;SDS011;48839;48.546;-4.178;2023-12-29T05:41:13;9.77;;;1.92;;
62796;SDS011;48839;48.546;-4.178;2023-12-29T05:43:39;11.75;;;2.17;;
62796;SDS011;48839;48.546;-4.178;2023-12-29T05:46:09;16.30;;;3.40;;
62796;SDS011;48839;48.546;-4.178;2023-12-29T05:48:36;12.95;;;2.47;;
62796;SDS011;48839;48.546;-4.178;2023-12-29T05:51:09;16.02;;;2.85;;
62796;SDS011;48839;48.546;-4.178;2023-12-29T05:53:35;13.45;;;2.70;;
62796;SDS011;48839;48.546;-4.178;2023-12-29T05:56:01;22.17;;;2.78;;
62796;SDS011;48839;48.546;-4.178;2023-12-29T05:58:27;18.92;;;3.05;;
62796;SDS011;48839;48.546;-4.178;2023-12-29T06:00:56;17.70;;;3.05;;
62796;SDS011;48839;48.546;-4.178;2023-12-29T06:03:25;8.27;;;1.88;;
62796;SDS011;48839;48.546;-4.178;2023-12-29T06:05:51;12.02;;;2.10;;
62796;SDS011;48839;48.546;-4.178;2023-12-29T06:08:18;16.83;;;2.20;;
62796;SDS011;48839;48.546;-4.178;2023-12-29T06:10:44;16.38;;;2.92;;
62796;SDS011;48839;48.546;-4.178;2023-12-29T06:13:10;12.65;;;2.40;;
62796;SDS011;48839;48.546;-4.178;2023-12-29T06:15:36;16.23;;;1.95;;
62796;SDS011;48839;48.546;-4.178;2023-12-29T06:18:04;11.52;;;2.88;;
62796;SDS011;48839;48.546;-4.178;2023-12-29T06:20:30;18.67;;;3.30;;
62796;SDS011;48839;48.546;-4.178;2023-12-29T06:22:56;17.20;;;2.90;;
62796;SDS011;48839;48.546;-4.178;2023-12-29T06:25:22;17.02;;;2.55;;
62796;SDS011;48839;48.546;-4.178;2023-12-29T06:27:48;10.30;;;2.65;;
62796;SDS011;48839;48.546;-4.178;2023-12-29T06:30:14;10.30;;;2.10;;
62796;SDS011;48839;48.546;-4.178;2023-12-29T06:32:40;13.18;;;2.35;;
62796;SDS011;48839;48.546;-4.178;2023-12-29T06:35:07;14.80;;;2.70;;
62796;SDS011;48839;48.546;-4.178;2023-12-29T06:37:35;11.48;;;2.72;;
62796;SDS011;48839;48.546;-4.178;2023-12-29T06:40:02;12.43;;;2.70;;
62796;SDS011;48839;48.546;-4.178;2023-12-29T06:42:28;18.42;;;4.43;;
62796;SDS011;48839;48.546;-4.178;2023-12-29T06:44:55;18.55;;;3.78;;
62796;SDS011;48839;48.546;-4.178;2023-12-29T06:47:21;15.48;;;3.35;;
62796;SDS011;48839;48.546;-4.178;2023-12-29T06:49:47;17.58;;;3.35;;
62796;SDS011;48839;48.546;-4.178;2023-12-29T06:52:14;15.15;;;3.22;;
62796;SDS011;48839;48.546;-4.178;2023-12-29T06:54:41;12.18;;;3.85;;
62796;SDS011;48839;48.546;-4.178;2023-12-29T06:57:07;13.40;;;3.03;;
62796;SDS011;48839;48.546;-4.178;2023-12-29T06:59:33;16.83;;;3.33;;
62796;SDS011;48839;48.546;-4.178;2023-12-29T07:01:59;10.35;;;2.35;;
62796;SDS011;48839;48.546;-4.178;2023-12-29T07:04:25;11.50;;;1.88;;
62796;SDS011;48839;48.546;-4.178;2023-12-29T07:06:51;7.47;;;1.63;;
62796;SDS011;48839;48.546;-4.178;2023-12-29T07:09:17;12.50;;;2.25;;
62796;SDS011;48839;48.546;-4.178;2023-12-29T07:11:49;9.32;;;2.25;;
62796;SDS011;48839;48.546;-4.178;2023-12-29T07:14:15;13.90;;;2.65;;
62796;SDS011;48839;48.546;-4.178;2023-12-29T07:16:42;14.93;;;3.17;;
62796;SDS011;48839;48.546;-4.178;2023-12-29T07:19:08;17.45;;;2.28;;
62796;SDS011;48839;48.546;-4.178;2023-12-29T07:21:34;14.90;;;4.65;;
62796;SDS011;48839;48.546;-4.178;2023-12-29T07:24:00;14.77;;;2.97;;
62796;SDS011;48839;48.546;-4.178;2023-12-29T07:26:26;13.20;;;2.88;;
62796;SDS011;48839;48.546;-4.178;2023-12-29T07:28:52;10.43;;;2.53;;
62796;SDS011;48839;48.546;-4.178;2023-12-29T07:31:22;11.45;;;2.08;;
62796;SDS011;48839;48.546;-4.178;2023-12-29T07:33:49;16.38;;;3.67;;
62796;SDS011;48839;48.546;-4.178;2023-12-29T07:36:15;18.20;;;3.90;;
62796;SDS011;48839;48.546;-4.178;2023-12-29T07:38:41;15.02;;;2.80;;
62796;SDS011;48839;48.546;-4.178;2023-12-29T07:41:07;15.70;;;3.17;;
62796;SDS011;48839;48.546;-4.178;2023-12-29T07:43:34;15.20;;;3.55;;
62796;SDS011;48839;48.546;-4.178;2023-12-29T07:46:03;12.20;;;1.90;;
62796;SDS011;48839;48.546;-4.178;2023-12-29T07:48:29;15.48;;;3.85;;
62796;SDS011;48839;48.546;-4.178;2023-12-29T07:50:55;11.18;;;2.13;;
62796;SDS011;48839;48.546;-4.178;2023-12-29T07:53:24;13.43;;;1.73;;
62796;SDS011;48839;48.546;-4.178;2023-12-29T07:55:50;12.00;;;2.28;;
62796;SDS011;48839;48.546;-4.178;2023-12-29T07:58:18;10.82;;;2.83;;
62796;SDS011;48839;48.546;-4.178;2023-12-29T08:00:44;13.63;;;2.15;;
62796;SDS011;48839;48.546;-4.178;2023-12-29T08:03:11;13.07;;;2.80;;
62796;SDS011;48839;48.546;-4.178;2023-12-29T08:05:37;47.25;;;19.33;;
62796;SDS011;48839;48.546;-4.178;2023-12-29T08:08:04;23.92;;;10.65;;
62796;SDS011;48839;48.546;-4.178;2023-12-29T08:10:30;38.88;;;19.08;;
62796;SDS011;48839;48.546;-4.178;2023-12-29T08:12:57;14.45;;;6.80;;
62796;SDS011;48839;48.546;-4.178;2023-12-29T08:15:23;20.35;;;5.57;;
62796;SDS011;48839;48.546;-4.178;2023-12-29T08:17:49;18.10;;;5.57;;
62796;SDS011;48839;48.546;-4.178;2023-12-29T08:20:15;15.00;;;4.50;;
62796;SDS011;48839;48.546;-4.178;2023-12-29T08:22:41;9.43;;;2.83;;
62796;SDS011;48839;48.546;-4.178;2023-12-29T08:25:08;6.25;;;3.05;;
62796;SDS011;48839;48.546;-4.178;2023-12-29T08:27:34;5.50;;;2.90;;
62796;SDS011;48839;48.546;-4.178;2023-12-29T08:30:00;14.70;;;3.15;;
62796;SDS011;48839;48.546;-4.178;2023-12-29T08:32:27;18.42;;;3.40;;
62796;SDS011;48839;48.546;-4.178;2023-12-29T08:34:53;13.18;;;2.80;;
62796;SDS011;48839;48.546;-4.178;2023-12-29T08:37:19;17.35;;;3.22;;
62796;SDS011;48839;48.546;-4.178;2023-12-29T08:39:48;12.43;;;2.58;;
62796;SDS011;48839;48.546;-4.178;2023-12-29T08:42:14;8.82;;;2.58;;
62796;SDS011;48839;48.546;-4.178;2023-12-29T08:44:40;12.35;;;2.80;;
62796;SDS011;48839;48.546;-4.178;2023-12-29T08:47:06;21.50;;;3.55;;
62796;SDS011;48839;48.546;-4.178;2023-12-29T08:49:36;12.00;;;3.63;;
62796;SDS011;48839;48.546;-4.178;2023-12-29T08:52:03;13.27;;;2.80;;
62796;SDS011;48839;48.546;-4.178;2023-12-29T08:54:29;20.15;;;4.32;;
62796;SDS011;48839;48.546;-4.178;2023-12-29T08:56:55;14.48;;;2.50;;
62796;SDS011;48839;48.546;-4.178;2023-12-29T08:59:21;11.80;;;2.67;;
62796;SDS011;48839;48.546;-4.178;2023-12-29T09:01:48;21.13;;;3.88;;
62796;SDS011;48839;48.546;-4.178;2023-12-29T09:04:14;19.35;;;3.08;;
62796;SDS011;48839;48.546;-4.178;2023-12-29T09:06:40;9.88;;;2.25;;
62796;SDS011;48839;48.546;-4.178;2023-12-29T09:09:06;20.85;;;3.80;;
62796;SDS011;48839;48.546;-4.178;2023-12-29T09:11:35;19.55;;;3.03;;
62796;SDS011;48839;48.546;-4.178;2023-12-29T09:14:01;11.38;;;2.40;;
62796;SDS011;48839;48.546;-4.178;2023-12-29T09:16:27;12.48;;;2.38;;
62796;SDS011;48839;48.546;-4.178;2023-12-29T09:18:53;19.17;;;2.40;;
62796;SDS011;48839;48.546;-4.178;2023-12-29T09:21:20;9.10;;;2.95;;
62796;SDS011;48839;48.546;-4.178;2023-12-29T09:23:46;19.95;;;3.53;;
62796;SDS011;48839;48.546;-4.178;2023-12-29T09:26:12;13.68;;;3.17;;
62796;SDS011;48839;48.546;-4.178;2023-12-29T09:28:41;11.85;;;2.28;;
62796;SDS011;48839;48.546;-4.178;2023-12-29T09:31:09;20.52;;;2.83;;
62796;SDS011;48839;48.546;-4.178;2023-12-29T09:33:35;14.02;;;2.97;;
62796;SDS011;48839;48.546;-4.178;2023-12-29T09:36:01;14.35;;;2.97;;
62796;SDS011;48839;48.546;-4.178;2023-12-29T09:38:27;14.73;;;3.33;;
62796;SDS011;48839;48.546;-4.178;2023-12-29T09:40:54;16.90;;;3.70;;
62796;SDS011;48839;48.546;-4.178;2023-12-29T09:43:21;29.10;;;11.55;;
62796;SDS011;48839;48.546;-4.178;2023-12-29T09:45:47;23.50;;;10.15;;
62796;SDS011;48839;48.546;-4.178;2023-12-29T09:48:14;14.63;;;3.97;;
62796;SDS011;48839;48.546;-4.178;2023-12-29T09:50:44;14.40;;;8.15;;
62796;SDS011;48839;48.546;-4.178;2023-12-29T09:53:10;18.00;;;8.10;;
62796;SDS011;48839;48.546;-4.178;2023-12-29T09:55:37;11.15;;;3.90;;
62796;SDS011;48839;48.546;-4.178;2023-12-29T09:58:04;11.55;;;2.92;;
62796;SDS011;48839;48.546;-4.178;2023-12-29T10:00:30;17.40;;;5.15;;
62796;SDS011;48839;48.546;-4.178;2023-12-29T10:02:56;8.50;;;3.47;;
62796;SDS011;48839;48.546;-4.178;2023-12-29T10:05:23;14.88;;;2.63;;
62796;SDS011;48839;48.546;-4.178;2023-12-29T10:07:49;11.27;;;2.95;;
62796;SDS011;48839;48.546;-4.178;2023-12-29T10:10:16;15.77;;;3.38;;
62796;SDS011;48839;48.546;-4.178;2023-12-29T10:12:43;17.73;;;3.75;;
62796;SDS011;48839;48.546;-4.178;2023-12-29T10:15:12;10.73;;;2.05;;
62796;SDS011;48839;48.546;-4.178;2023-12-29T10:17:53;15.52;;;3.55;;
62796;SDS011;48839;48.546;-4.178;2023-12-29T10:25:13;27.23;;;4.93;;
62796;SDS011;48839;48.546;-4.178;2023-12-29T10:27:39;19.20;;;3.88;;
62796;SDS011;48839;48.546;-4.178;2023-12-29T10:30:07;15.02;;;4.38;;
62796;SDS011;48839;48.546;-4.178;2023-12-29T10:32:35;17.65;;;4.15;;
62796;SDS011;48839;48.546;-4.178;2023-12-29T10:35:08;19.35;;;4.50;;
62796;SDS011;48839;48.546;-4.178;2023-12-29T10:37:34;17.65;;;3.10;;
62796;SDS011;48839;48.546;-4.178;2023-12-29T10:40:01;11.70;;;2.88;;
62796;SDS011;48839;48.546;-4.178;2023-12-29T10:42:27;14.02;;;2.45;;
62796;SDS011;48839;48.546;-4.178;2023-12-29T10:45:07;11.90;;;2.63;;
62796;SDS011;48839;48.546;-4.178;2023-12-29T10:47:33;11.05;;;2.42;;
62796;SDS011;48839;48.546;-4.178;2023-12-29T10:50:04;15.57;;;3.40;;
62796;SDS011;48839;48.546;-4.178;2023-12-29T10:52:31;13.15;;;1.67;;
62796;SDS011;48839;48.546;-4.178;2023-12-29T10:55:05;22.27;;;7.65;;
62796;SDS011;48839;48.546;-4.178;2023-12-29T10:57:31;11.52;;;4.40;;
62796;SDS011;48839;48.546;-4.178;2023-12-29T11:00:00;15.20;;;4.88;;
62796;SDS011;48839;48.546;-4.178;2023-12-29T11:02:27;11.15;;;3.15;;
62796;SDS011;48839;48.546;-4.178;2023-12-29T11:05:03;20.95;;;3.55;;
62796;SDS011;48839;48.546;-4.178;2023-12-29T11:07:37;9.93;;;3.35;;
62796;SDS011;48839;48.546;-4.178;2023-12-29T11:10:04;14.93;;;2.45;;
62796;SDS011;48839;48.546;-4.178;2023-12-29T11:12:37;14.70;;;3.28;;
62796;SDS011;48839;48.546;-4.178;2023-12-29T11:15:05;14.00;;;3.47;;
62796;SDS011;48839;48.546;-4.178;2023-12-29T11:17:31;6.57;;;2.15;;
62796;SDS011;48839;48.546;-4.178;2023-12-29T11:20:02;16.33;;;3.45;;
62796;SDS011;48839;48.546;-4.178;2023-12-29T11:22:28;14.27;;;2.63;;
62796;SDS011;48839;48.546;-4.178;2023-12-29T11:24:58;7.78;;;2.72;;
62796;SDS011;48839;48.546;-4.178;2023-12-29T11:27:33;15.95;;;3.05;;
62796;SDS011;48839;48.546;-4.178;2023-12-29T11:30:00;11.05;;;2.67;;
62796;SDS011;48839;48.546;-4.178;2023-12-29T11:35:21;15.77;;;2.33;;
62796;SDS011;48839;48.546;-4.178;2023-12-29T11:40:35;20.58;;;4.90;;
62796;SDS011;48839;48.546;-4.178;2023-12-29T11:43:02;14.07;;;4.60;;
62796;SDS011;48839;48.546;-4.178;2023-12-29T11:45:32;28.30;;;8.52;;
62796;SDS011;48839;48.546;-4.178;2023-12-29T11:48:02;12.32;;;3.95;;
62796;SDS011;48839;48.546;-4.178;2023-12-29T11:50:35;28.80;;;10.27;;
62796;SDS011;48839;48.546;-4.178;2023-12-29T11:53:03;22.52;;;7.65;;
62796;SDS011;48839;48.546;-4.178;2023-12-29T11:55:30;23.48;;;8.13;;
62796;SDS011;48839;48.546;-4.178;2023-12-29T11:57:56;28.40;;;13.80;;
62796;SDS011;48839;48.546;-4.178;2023-12-29T12:03:27;26.25;;;6.93;;
62796;SDS011;48839;48.546;-4.178;2023-12-29T12:05:54;24.98;;;5.10;;
62796;SDS011;48839;48.546;-4.178;2023-12-29T12:08:31;18.55;;;4.28;;
62796;SDS011;48839;48.546;-4.178;2023-12-29T12:11:41;21.63;;;3.55;;
62796;SDS011;48839;48.546;-4.178;2023-12-29T12:13:45;12.68;;;3.78;;
62796;SDS011;48839;48.546;-4.178;2023-12-29T12:18:56;16.75;;;2.90;;
62796;SDS011;48839;48.546;-4.178;2023-12-29T12:21:23;11.00;;;2.05;;
62796;SDS011;48839;48.546;-4.178;2023-12-29T12:23:50;14.07;;;2.35;;
62796;SDS011;48839;48.546;-4.178;2023-12-29T12:26:17;16.83;;;3.28;;
62796;SDS011;48839;48.546;-4.178;2023-12-29T12:28:43;13.23;;;2.97;;
62796;SDS011;48839;48.546;-4.178;2023-12-29T12:31:12;14.20;;;3.95;;
62796;SDS011;48839;48.546;-4.178;2023-12-29T12:33:38;14.85;;;4.13;;
62796;SDS011;48839;48.546;-4.178;2023-12-29T12:36:04;10.63;;;3.13;;
62796;SDS011;48839;48.546;-4.178;2023-12-29T12:38:31;16.33;;;3.55;;
62796;SDS011;48839;48.546;-4.178;2023-12-29T12:41:08;16.10;;;2.60;;
62796;SDS011;48839;48.546;-4.178;2023-12-29T12:43:36;10.80;;;2.83;;
62796;SDS011;48839;48.546;-4.178;2023-12-29T12:46:05;16.02;;;2.88;;
62796;SDS011;48839;48.546;-4.178;2023-12-29T12:48:36;15.75;;;3.35;;
62796;SDS011;48839;48.546;-4.178;2023-12-29T12:51:05;15.77;;;2.75;;
62796;SDS011;48839;48.546;-4.178;2023-12-29T12:53:31;14.05;;;3.20;;
62796;SDS011;48839;48.546;-4.178;2023-12-29T12:55:57;10.80;;;3.03;;
62796;SDS011;48839;48.546;-4.178;2023-12-29T12:58:23;14.68;;;2.78;;
62796;SDS011;48839;48.546;-4.178;2023-12-29T13:00:51;11.00;;;3.25;;
62796;SDS011;48839;48.546;-4.178;2023-12-29T13:03:17;19.45;;;3.47;;
62796;SDS011;48839;48.546;-4.178;2023-12-29T13:05:43;12.95;;;3.67;;
62796;SDS011;48839;48.546;-4.178;2023-12-29T13:08:09;16.35;;;3.08;;
62796;SDS011;48839;48.546;-4.178;2023-12-29T13:10:40;15.18;;;3.03;;
62796;SDS011;48839;48.546;-4.178;2023-12-29T13:13:07;7.45;;;2.90;;
62796;SDS011;48839;48.546;-4.178;2023-12-29T13:15:33;14.52;;;2.30;;
62796;SDS011;48839;48.546;-4.178;2023-12-29T13:17:59;8.85;;;2.97;;
62796;SDS011;48839;48.546;-4.178;2023-12-29T13:20:25;15.45;;;3.08;;
62796;SDS011;48839;48.546;-4.178;2023-12-29T13:22:51;12.73;;;3.25;;
62796;SDS011;48839;48.546;-4.178;2023-12-29T13:25:20;11.23;;;3.58;;
62796;SDS011;48839;48.546;-4.178;2023-12-29T13:27:47;16.73;;;2.97;;
62796;SDS011;48839;48.546;-4.178;2023-12-29T13:30:13;14.25;;;3.10;;
62796;SDS011;48839;48.546;-4.178;2023-12-29T13:32:40;31.30;;;9.52;;
62796;SDS011;48839;48.546;-4.178;2023-12-29T13:37:37;21.58;;;9.70;;
62796;SDS011;48839;48.546;-4.178;2023-12-29T13:42:35;40.13;;;14.95;;
62796;SDS011;48839;48.546;-4.178;2023-12-29T13:45:03;76.40;;;36.33;;
62796;SDS011;48839;48.546;-4.178;2023-12-29T13:47:30;38.85;;;18.13;;
62796;SDS011;48839;48.546;-4.178;2023-12-29T13:49:57;35.83;;;19.25;;
62796;SDS011;48839;48.546;-4.178;2023-12-29T13:52:23;25.08;;;12.38;;
62796;SDS011;48839;48.546;-4.178;2023-12-29T13:54:49;12.40;;;4.40;;
62796;SDS011;48839;48.546;-4.178;2023-12-29T13:57:15;10.13;;;5.80;;
62796;SDS011;48839;48.546;-4.178;2023-12-29T13:59:41;19.45;;;9.15;;
62796;SDS011;48839;48.546;-4.178;2023-12-29T14:04:46;19.48;;;4.05;;
62796;SDS011;48839;48.546;-4.178;2023-12-29T14:07:12;16.17;;;5.85;;
62796;SDS011;48839;48.546;-4.178;2023-12-29T14:09:39;14.07;;;4.05;;
62796;SDS011;48839;48.546;-4.178;2023-12-29T14:12:05;15.27;;;5.18;;
62796;SDS011;48839;48.546;-4.178;2023-12-29T14:14:32;25.63;;;4.63;;
62796;SDS011;48839;48.546;-4.178;2023-12-29T14:16:58;12.02;;;3.33;;
62796;SDS011;48839;48.546;-4.178;2023-12-29T14:19:24;21.70;;;3.67;;
62796;SDS011;48839;48.546;-4.178;2023-12-29T14:21:51;16.45;;;3.40;;
62796;SDS011;48839;48.546;-4.178;2023-12-29T14:24:18;22.05;;;3.75;;
62796;SDS011;48839;48.546;-4.178;2023-12-29T14:26:54;20.13;;;3.80;;
62796;SDS011;48839;48.546;-4.178;2023-12-29T14:29:24;16.40;;;3.55;;
62796;SDS011;48839;48.546;-4.178;2023-12-29T14:31:50;16.85;;;3.75;;
62796;SDS011;48839;48.546;-4.178;2023-12-29T14:34:17;15.52;;;3.70;;
62796;SDS011;48839;48.546;-4.178;2023-12-29T14:36:44;18.75;;;2.70;;
62796;SDS011;48839;48.546;-4.178;2023-12-29T14:39:11;20.17;;;7.78;;
62796;SDS011;48839;48.546;-4.178;2023-12-29T14:41:38;19.70;;;4.53;;
62796;SDS011;48839;48.546;-4.178;2023-12-29T14:44:04;18.40;;;3.65;;